Etusivu
METAR-TAF:

METAR-TAF

Lentoasemat :

Atka, Alaska, Yhdysvallat

Leveyspiiri: 52-13-13N, Pituuspiiri: 174-12-23W, korkeus merenpinnasta: 17 m

Tämänhetkinen sää

Tämä raportti tehtiin 41 minuuttia sitten, kello 22.56 UTC
Tuuli 13 kn kaakosta
Lämpötila 9°C
Kosteus 93%
Ilmanpaine 1019 hPa
Näkyvyys: 4.8 km
Pilvistä 300 ft:n korkeudessa
utua

METAR: PAAK 182256Z AUTO 14013KT 3SM BR OVC003 09/08 A3009 RMK AO2 SLP192 T00940083 PNO $

Aika: 15:37 (23:37 UTC)


TAF: puuttuu

Säähavainnot ja -ennusteet yli 4000 lentoasemalta (METAR- ja TAF-raportit).

Käytössä olevat sääasemat on merkitty karttaan keltaisilla ja punaisilla pisteillä.

Aseta hiiri pisteen päälle nähdäksesi sääaseman nimen.

Klikkaa sitten nähdäksesi säähavainnot ja -ennusteet.

Kartan vaihtaminen: klikkaa mustalla rastilla varustettuja vihreitä pisteitä, niin voit zoomata sisään; viivalla varustettua vihreää pistettä, niin voit zoomata ulos tai vihreitä nuolia, niin pääset viereisille kartoille.


METAR-TAF: